North Lebanon, Pennsylvania
Current Conditions -  °F | °C
As of 8:58 AM on Thursday 30 Oct 2014 (Local Time) from KMUI Reporting Station
Clear Clear  
Wind Chill: 49°   Ceiling: Unl
Heat Index: 49°   Visibility: 10mi
Dew Point: 44°   Wind: 2mph
Humidity: 84%   Direction: NA
Pressure: 30.04"   Gusts: NA
Location:  40.2957°N, 76.4189°W
Report Text: KMUI 301258Z AUTO VRB02KT 10SM CLR 09/07 A3004 RMK AO2 SLP177 T00930068 $
Loading
Personal Weather Stations






























Interactive Weather Map
Tropical Storm Tracking
New forecast layout! Learn more

10-Day Weather Forecast

Advertisements
Track Severe Weather on mobile